sensor_id;sensor_type;location;lat;lon;timestamp;pressure;altitude;pressure_sealevel;temperature;humidity
42511;BME280;28141;51.120;17.114;2023-03-20T00:01:27;101610.27;;;26.08;25.59
42511;BME280;28141;51.120;17.114;2023-03-20T00:05:20;101617.53;;;26.09;25.90
42511;BME280;28141;51.120;17.114;2023-03-20T00:08:35;101610.56;;;26.00;25.88
42511;BME280;28141;51.120;17.114;2023-03-20T00:11:53;101604.13;;;26.06;25.89
42511;BME280;28141;51.120;17.114;2023-03-20T00:18:58;101614.19;;;26.01;25.93
42511;BME280;28141;51.120;17.114;2023-03-20T00:22:11;101615.67;;;26.03;25.80
42511;BME280;28141;51.120;17.114;2023-03-20T00:25:25;101612.68;;;26.05;25.68
42511;BME280;28141;51.120;17.114;2023-03-20T00:28:43;101612.91;;;26.03;25.65
42511;BME280;28141;51.120;17.114;2023-03-20T00:32:23;101612.19;;;26.08;25.93
42511;BME280;28141;51.120;17.114;2023-03-20T00:35:37;101611.34;;;26.07;26.05
42511;BME280;28141;51.120;17.114;2023-03-20T00:38:51;101606.42;;;26.09;25.80
42511;BME280;28141;51.120;17.114;2023-03-20T00:42:18;101608.75;;;26.12;26.12
42511;BME280;28141;51.120;17.114;2023-03-20T00:45:50;101610.67;;;26.12;26.00
42511;BME280;28141;51.120;17.114;2023-03-20T00:49:04;101598.73;;;26.11;26.13
42511;BME280;28141;51.120;17.114;2023-03-20T00:52:20;101596.57;;;26.13;26.13
42511;BME280;28141;51.120;17.114;2023-03-20T00:55:35;101606.73;;;26.19;26.20
42511;BME280;28141;51.120;17.114;2023-03-20T00:59:20;101610.23;;;26.15;26.04
42511;BME280;28141;51.120;17.114;2023-03-20T01:02:36;101599.13;;;26.15;26.02
42511;BME280;28141;51.120;17.114;2023-03-20T01:05:50;101603.74;;;26.21;25.93
42511;BME280;28141;51.120;17.114;2023-03-20T01:09:04;101593.94;;;26.18;26.38
42511;BME280;28141;51.120;17.114;2023-03-20T01:12:18;101595.01;;;26.17;26.08
42511;BME280;28141;51.120;17.114;2023-03-20T01:15:58;101595.49;;;26.14;26.27
42511;BME280;28141;51.120;17.114;2023-03-20T01:19:14;101586.08;;;26.15;26.10
42511;BME280;28141;51.120;17.114;2023-03-20T01:22:28;101594.41;;;26.15;26.50
42511;BME280;28141;51.120;17.114;2023-03-20T01:25:43;101599.16;;;26.08;26.40
42511;BME280;28141;51.120;17.114;2023-03-20T01:29:25;101594.23;;;26.10;26.37
42511;BME280;28141;51.120;17.114;2023-03-20T01:32:43;101601.94;;;26.08;26.56
42511;BME280;28141;51.120;17.114;2023-03-20T01:36:00;101608.12;;;26.10;26.71
42511;BME280;28141;51.120;17.114;2023-03-20T01:39:14;101607.49;;;26.08;26.60
42511;BME280;28141;51.120;17.114;2023-03-20T01:42:54;101609.83;;;26.11;26.65
42511;BME280;28141;51.120;17.114;2023-03-20T01:46:21;101600.41;;;26.12;26.69
42511;BME280;28141;51.120;17.114;2023-03-20T01:53:27;101608.01;;;25.99;26.99
42511;BME280;28141;51.120;17.114;2023-03-20T01:56:55;101609.50;;;26.01;26.67
42511;BME280;28141;51.120;17.114;2023-03-20T02:00:15;101606.09;;;25.99;27.03
42511;BME280;28141;51.120;17.114;2023-03-20T02:03:55;101606.53;;;25.96;26.92
42511;BME280;28141;51.120;17.114;2023-03-20T02:07:10;101605.01;;;26.00;27.06
42511;BME280;28141;51.120;17.114;2023-03-20T02:10:26;101610.75;;;26.05;27.01
42511;BME280;28141;51.120;17.114;2023-03-20T02:13:41;101609.50;;;26.01;26.83
42511;BME280;28141;51.120;17.114;2023-03-20T02:17:21;101601.38;;;26.00;27.03
42511;BME280;28141;51.120;17.114;2023-03-20T02:20:49;101598.17;;;26.03;27.15
42511;BME280;28141;51.120;17.114;2023-03-20T02:35:23;101600.65;;;25.86;27.53
42511;BME280;28141;51.120;17.114;2023-03-20T02:42:20;101611.60;;;25.81;27.79
42511;BME280;28141;51.120;17.114;2023-03-20T02:56:58;101608.20;;;25.79;27.74
42511;BME280;28141;51.120;17.114;2023-03-20T03:00:25;101605.59;;;25.84;27.90
42511;BME280;28141;51.120;17.114;2023-03-20T03:04:10;101601.47;;;25.93;27.79
42511;BME280;28141;51.120;17.114;2023-03-20T03:07:31;101600.65;;;25.86;28.08
42511;BME280;28141;51.120;17.114;2023-03-20T03:10:54;101599.13;;;25.90;27.68
42511;BME280;28141;51.120;17.114;2023-03-20T03:14:28;101602.46;;;25.99;27.82
42511;BME280;28141;51.120;17.114;2023-03-20T03:17:59;101597.53;;;26.01;27.90
42511;BME280;28141;51.120;17.114;2023-03-20T03:21:16;101602.94;;;25.96;28.18
42511;BME280;28141;51.120;17.114;2023-03-20T03:24:36;101595.06;;;25.93;27.87
42511;BME280;28141;51.120;17.114;2023-03-20T03:31:43;101595.09;;;25.86;28.11
42511;BME280;28141;51.120;17.114;2023-03-20T03:35:00;101595.28;;;25.91;28.15
42511;BME280;28141;51.120;17.114;2023-03-20T03:45:35;101595.79;;;25.81;27.89
42511;BME280;28141;51.120;17.114;2023-03-20T03:49:21;101598.35;;;25.83;27.97
42511;BME280;28141;51.120;17.114;2023-03-20T03:52:37;101595.09;;;25.86;27.92
42511;BME280;28141;51.120;17.114;2023-03-20T03:55:56;101594.02;;;25.87;27.51
42511;BME280;28141;51.120;17.114;2023-03-20T03:59:41;101590.87;;;25.84;27.85
42511;BME280;28141;51.120;17.114;2023-03-20T04:02:57;101584.24;;;25.85;28.04
42511;BME280;28141;51.120;17.114;2023-03-20T04:06:11;101591.24;;;25.87;27.95
42511;BME280;28141;51.120;17.114;2023-03-20T04:09:25;101592.58;;;25.85;27.96
42511;BME280;28141;51.120;17.114;2023-03-20T04:13:04;101603.05;;;25.83;27.93
42511;BME280;28141;51.120;17.114;2023-03-20T04:16:19;101609.45;;;25.83;27.83
42511;BME280;28141;51.120;17.114;2023-03-20T04:19:34;101603.90;;;25.83;28.13
42511;BME280;28141;51.120;17.114;2023-03-20T04:22:48;101605.12;;;25.87;28.00
42511;BME280;28141;51.120;17.114;2023-03-20T04:26:27;101601.49;;;25.87;28.02
42511;BME280;28141;51.120;17.114;2023-03-20T04:29:41;101600.65;;;25.86;27.79
42511;BME280;28141;51.120;17.114;2023-03-20T04:32:55;101604.50;;;25.85;28.08
42511;BME280;28141;51.120;17.114;2023-03-20T04:36:10;101602.57;;;25.86;27.94
42511;BME280;28141;51.120;17.114;2023-03-20T04:39:49;101598.91;;;25.92;28.03
42511;BME280;28141;51.120;17.114;2023-03-20T04:43:04;101605.76;;;25.89;28.13
42511;BME280;28141;51.120;17.114;2023-03-20T04:46:18;101599.77;;;25.92;27.87
42511;BME280;28141;51.120;17.114;2023-03-20T04:49:32;101611.93;;;25.91;28.08
42511;BME280;28141;51.120;17.114;2023-03-20T04:53:10;101612.38;;;25.88;28.15
42511;BME280;28141;51.120;17.114;2023-03-20T04:56:24;101619.00;;;25.87;28.26
42511;BME280;28141;51.120;17.114;2023-03-20T04:59:38;101618.97;;;25.94;28.21
42511;BME280;28141;51.120;17.114;2023-03-20T05:02:52;101609.08;;;25.98;27.87
42511;BME280;28141;51.120;17.114;2023-03-20T05:06:31;101624.04;;;25.97;28.26
42511;BME280;28141;51.120;17.114;2023-03-20T05:09:44;101616.98;;;26.01;28.35
42511;BME280;28141;51.120;17.114;2023-03-20T05:12:58;101617.59;;;26.03;28.63
42511;BME280;28141;51.120;17.114;2023-03-20T05:16:12;101616.12;;;26.00;28.73
42511;BME280;28141;51.120;17.114;2023-03-20T05:19:51;101616.76;;;26.02;29.19
42511;BME280;28141;51.120;17.114;2023-03-20T05:23:05;101605.20;;;26.05;29.26
42511;BME280;28141;51.120;17.114;2023-03-20T05:26:19;101611.41;;;26.01;29.54
42511;BME280;28141;51.120;17.114;2023-03-20T05:29:34;101609.05;;;26.04;29.89
42511;BME280;28141;51.120;17.114;2023-03-20T05:33:13;101614.13;;;26.07;29.98
42511;BME280;28141;51.120;17.114;2023-03-20T05:36:26;101618.01;;;26.06;29.88
42511;BME280;28141;51.120;17.114;2023-03-20T05:39:40;101621.60;;;26.07;30.65
42511;BME280;28141;51.120;17.114;2023-03-20T05:42:54;101630.33;;;26.10;30.33
42511;BME280;28141;51.120;17.114;2023-03-20T05:46:33;101628.20;;;26.12;30.45
42511;BME280;28141;51.120;17.114;2023-03-20T05:49:47;101625.56;;;26.17;30.45
42511;BME280;28141;51.120;17.114;2023-03-20T05:53:01;101631.52;;;26.21;30.48
42511;BME280;28141;51.120;17.114;2023-03-20T05:56:15;101635.77;;;26.24;30.57
42511;BME280;28141;51.120;17.114;2023-03-20T05:59:54;101633.17;;;26.29;30.73
42511;BME280;28141;51.120;17.114;2023-03-20T06:03:08;101628.02;;;26.32;31.03
42511;BME280;28141;51.120;17.114;2023-03-20T06:06:22;101628.65;;;26.34;30.87
42511;BME280;28141;51.120;17.114;2023-03-20T06:09:36;101631.73;;;26.44;30.86
42511;BME280;28141;51.120;17.114;2023-03-20T06:13:14;101631.20;;;26.54;30.96
42511;BME280;28141;51.120;17.114;2023-03-20T06:16:28;101636.15;;;26.52;31.03
42511;BME280;28141;51.120;17.114;2023-03-20T06:19:42;101638.46;;;26.55;31.28
42511;BME280;28141;51.120;17.114;2023-03-20T06:22:56;101634.61;;;26.56;31.22
42511;BME280;28141;51.120;17.114;2023-03-20T06:26:37;101646.13;;;26.60;31.30
42511;BME280;28141;51.120;17.114;2023-03-20T06:29:51;101645.27;;;26.59;31.37
42511;BME280;28141;51.120;17.114;2023-03-20T06:33:06;101660.78;;;26.67;31.48
42511;BME280;28141;51.120;17.114;2023-03-20T06:36:21;101647.28;;;26.70;31.10
42511;BME280;28141;51.120;17.114;2023-03-20T06:40:06;101660.34;;;26.70;31.65
42511;BME280;28141;51.120;17.114;2023-03-20T06:43:22;101653.30;;;26.67;31.80
42511;BME280;28141;51.120;17.114;2023-03-20T06:46:36;101652.84;;;26.70;31.49
42511;BME280;28141;51.120;17.114;2023-03-20T06:49:49;101653.84;;;26.76;31.99
42511;BME280;28141;51.120;17.114;2023-03-20T06:53:30;101660.64;;;26.80;31.98
42511;BME280;28141;51.120;17.114;2023-03-20T06:56:44;101663.79;;;26.83;32.13
42511;BME280;28141;51.120;17.114;2023-03-20T06:59:58;101652.38;;;26.92;32.26
42511;BME280;28141;51.120;17.114;2023-03-20T07:03:13;101649.53;;;26.98;32.37
42511;BME280;28141;51.120;17.114;2023-03-20T07:06:55;101655.09;;;26.98;32.35
42511;BME280;28141;51.120;17.114;2023-03-20T07:10:10;101652.72;;;27.02;32.50
42511;BME280;28141;51.120;17.114;2023-03-20T07:13:24;101657.33;;;27.08;31.71
42511;BME280;28141;51.120;17.114;2023-03-20T07:16:40;101662.03;;;27.07;32.41
42511;BME280;28141;51.120;17.114;2023-03-20T07:20:21;101665.04;;;27.06;32.28
42511;BME280;28141;51.120;17.114;2023-03-20T07:23:35;101665.66;;;27.08;32.21
42511;BME280;28141;51.120;17.114;2023-03-20T07:26:49;101660.11;;;27.08;32.42
42511;BME280;28141;51.120;17.114;2023-03-20T07:30:05;101666.91;;;27.12;32.63
42511;BME280;28141;51.120;17.114;2023-03-20T07:33:46;101674.93;;;27.20;32.43
42511;BME280;28141;51.120;17.114;2023-03-20T07:37:00;101667.20;;;27.22;32.20
42511;BME280;28141;51.120;17.114;2023-03-20T07:40:15;101671.81;;;27.28;32.60
42511;BME280;28141;51.120;17.114;2023-03-20T07:43:29;101665.33;;;27.34;32.62
42511;BME280;28141;51.120;17.114;2023-03-20T07:47:09;101677.66;;;27.38;32.47
42511;BME280;28141;51.120;17.114;2023-03-20T07:50:23;101679.76;;;27.43;32.44
42511;BME280;28141;51.120;17.114;2023-03-20T07:53:37;101677.10;;;27.48;32.11
42511;BME280;28141;51.120;17.114;2023-03-20T07:56:52;101672.77;;;27.52;32.41
42511;BME280;28141;51.120;17.114;2023-03-20T08:00:32;101672.53;;;27.53;32.55
42511;BME280;28141;51.120;17.114;2023-03-20T08:03:46;101672.23;;;27.61;32.10
42511;BME280;28141;51.120;17.114;2023-03-20T08:07:00;101681.20;;;27.64;32.78
42511;BME280;28141;51.120;17.114;2023-03-20T08:10:15;101675.63;;;27.64;32.88
42511;BME280;28141;51.120;17.114;2023-03-20T08:13:55;101683.75;;;27.65;32.58
42511;BME280;28141;51.120;17.114;2023-03-20T08:17:09;101681.58;;;27.67;33.01
42511;BME280;28141;51.120;17.114;2023-03-20T08:20:23;101682.55;;;27.73;32.54
42511;BME280;28141;51.120;17.114;2023-03-20T08:23:38;101689.36;;;27.77;32.22
42511;BME280;28141;51.120;17.114;2023-03-20T08:27:18;101690.89;;;27.73;32.58
42511;BME280;28141;51.120;17.114;2023-03-20T08:30:32;101694.30;;;27.75;32.69
42511;BME280;28141;51.120;17.114;2023-03-20T08:33:46;101693.68;;;27.73;32.45
42511;BME280;28141;51.120;17.114;2023-03-20T08:37:02;101695.62;;;27.72;32.08
42511;BME280;28141;51.120;17.114;2023-03-20T08:40:43;101699.26;;;27.73;32.60
42511;BME280;28141;51.120;17.114;2023-03-20T08:43:57;101699.13;;;27.68;32.49
42511;BME280;28141;51.120;17.114;2023-03-20T08:47:12;101693.79;;;27.66;32.52
42511;BME280;28141;51.120;17.114;2023-03-20T08:50:26;101704.93;;;27.66;32.70
42511;BME280;28141;51.120;17.114;2023-03-20T08:54:06;101707.33;;;27.63;32.67
42511;BME280;28141;51.120;17.114;2023-03-20T08:57:20;101701.30;;;27.66;32.52
42511;BME280;28141;51.120;17.114;2023-03-20T09:00:34;101707.21;;;27.69;33.00
42511;BME280;28141;51.120;17.114;2023-03-20T09:03:49;101707.14;;;27.76;32.89
42511;BME280;28141;51.120;17.114;2023-03-20T09:07:31;101714.64;;;27.75;32.52
42511;BME280;28141;51.120;17.114;2023-03-20T09:10:46;101706.41;;;27.80;32.00
42511;BME280;28141;51.120;17.114;2023-03-20T09:14:01;101709.47;;;27.79;33.04
42511;BME280;28141;51.120;17.114;2023-03-20T09:17:15;101708.97;;;27.82;31.85
42511;BME280;28141;51.120;17.114;2023-03-20T09:20:55;101708.35;;;27.80;32.33
42511;BME280;28141;51.120;17.114;2023-03-20T09:24:10;101708.50;;;27.85;32.50
42511;BME280;28141;51.120;17.114;2023-03-20T09:27:24;101704.74;;;27.91;32.80
